sensor_id;sensor_type;location;lat;lon;timestamp;temperature;humidity
73360;DHT22;63092;43.582;19.528;2023-12-22T00:01:40;4.70;99.90
73360;DHT22;63092;43.582;19.528;2023-12-22T00:04:05;4.70;99.90
73360;DHT22;63092;43.582;19.528;2023-12-22T00:06:32;4.70;99.90
73360;DHT22;63092;43.582;19.528;2023-12-22T00:08:58;4.60;99.90
73360;DHT22;63092;43.582;19.528;2023-12-22T00:11:23;4.70;99.90
73360;DHT22;63092;43.582;19.528;2023-12-22T00:13:49;4.70;99.90
73360;DHT22;63092;43.582;19.528;2023-12-22T00:16:14;4.70;99.90
73360;DHT22;63092;43.582;19.528;2023-12-22T00:18:40;4.70;99.90
73360;DHT22;63092;43.582;19.528;2023-12-22T00:21:12;4.70;99.90
73360;DHT22;63092;43.582;19.528;2023-12-22T00:23:38;4.60;99.90
73360;DHT22;63092;43.582;19.528;2023-12-22T00:26:05;4.50;99.90
73360;DHT22;63092;43.582;19.528;2023-12-22T00:28:30;4.50;99.90
73360;DHT22;63092;43.582;19.528;2023-12-22T00:30:57;4.50;99.90
73360;DHT22;63092;43.582;19.528;2023-12-22T00:33:23;4.60;99.90
73360;DHT22;63092;43.582;19.528;2023-12-22T00:35:49;4.60;99.90
73360;DHT22;63092;43.582;19.528;2023-12-22T00:38:14;4.60;99.90
73360;DHT22;63092;43.582;19.528;2023-12-22T00:40:40;4.50;99.90
73360;DHT22;63092;43.582;19.528;2023-12-22T00:43:06;4.60;99.90
73360;DHT22;63092;43.582;19.528;2023-12-22T00:45:31;4.60;99.90
73360;DHT22;63092;43.582;19.528;2023-12-22T00:47:57;4.70;99.90
73360;DHT22;63092;43.582;19.528;2023-12-22T00:50:23;4.70;99.90
73360;DHT22;63092;43.582;19.528;2023-12-22T00:52:48;4.70;99.90
73360;DHT22;63092;43.582;19.528;2023-12-22T00:55:14;4.70;99.90
73360;DHT22;63092;43.582;19.528;2023-12-22T00:57:39;4.60;99.90
73360;DHT22;63092;43.582;19.528;2023-12-22T01:00:05;4.50;99.90
73360;DHT22;63092;43.582;19.528;2023-12-22T01:02:34;4.40;99.90
73360;DHT22;63092;43.582;19.528;2023-12-22T01:04:59;4.30;99.90
73360;DHT22;63092;43.582;19.528;2023-12-22T01:07:25;4.40;99.90
73360;DHT22;63092;43.582;19.528;2023-12-22T01:09:51;4.50;99.90
73360;DHT22;63092;43.582;19.528;2023-12-22T01:12:16;4.60;99.90
73360;DHT22;63092;43.582;19.528;2023-12-22T01:14:42;4.60;99.90
73360;DHT22;63092;43.582;19.528;2023-12-22T01:17:10;4.70;99.90
73360;DHT22;63092;43.582;19.528;2023-12-22T01:19:36;4.70;99.90
73360;DHT22;63092;43.582;19.528;2023-12-22T01:22:01;4.70;99.90
73360;DHT22;63092;43.582;19.528;2023-12-22T01:24:27;4.80;99.90
73360;DHT22;63092;43.582;19.528;2023-12-22T01:26:53;4.80;99.90
73360;DHT22;63092;43.582;19.528;2023-12-22T01:29:18;4.60;99.90
73360;DHT22;63092;43.582;19.528;2023-12-22T01:31:44;4.70;99.90
73360;DHT22;63092;43.582;19.528;2023-12-22T01:34:10;4.70;99.90
73360;DHT22;63092;43.582;19.528;2023-12-22T01:36:35;4.60;99.90
73360;DHT22;63092;43.582;19.528;2023-12-22T01:39:01;4.60;99.90
73360;DHT22;63092;43.582;19.528;2023-12-22T01:41:26;4.60;99.90
73360;DHT22;63092;43.582;19.528;2023-12-22T01:43:52;4.70;99.90
73360;DHT22;63092;43.582;19.528;2023-12-22T01:46:17;4.70;99.90
73360;DHT22;63092;43.582;19.528;2023-12-22T01:48:43;4.70;99.90
73360;DHT22;63092;43.582;19.528;2023-12-22T01:51:09;4.70;99.90
73360;DHT22;63092;43.582;19.528;2023-12-22T01:53:35;4.80;99.90
73360;DHT22;63092;43.582;19.528;2023-12-22T01:56:00;4.70;99.90
73360;DHT22;63092;43.582;19.528;2023-12-22T01:58:27;4.70;99.90
73360;DHT22;63092;43.582;19.528;2023-12-22T02:00:53;4.70;99.90
73360;DHT22;63092;43.582;19.528;2023-12-22T02:03:19;4.70;99.90
73360;DHT22;63092;43.582;19.528;2023-12-22T02:05:44;4.80;99.90
73360;DHT22;63092;43.582;19.528;2023-12-22T02:08:11;4.80;99.90
73360;DHT22;63092;43.582;19.528;2023-12-22T02:10:36;4.80;99.90
73360;DHT22;63092;43.582;19.528;2023-12-22T02:13:02;4.90;99.90
73360;DHT22;63092;43.582;19.528;2023-12-22T02:15:28;4.90;99.90
73360;DHT22;63092;43.582;19.528;2023-12-22T02:20:22;4.90;99.90
73360;DHT22;63092;43.582;19.528;2023-12-22T02:22:52;4.70;99.90
73360;DHT22;63092;43.582;19.528;2023-12-22T02:25:18;4.70;99.90
73360;DHT22;63092;43.582;19.528;2023-12-22T02:27:53;4.80;99.90
73360;DHT22;63092;43.582;19.528;2023-12-22T02:30:23;4.80;99.90
73360;DHT22;63092;43.582;19.528;2023-12-22T02:32:51;4.70;99.90
73360;DHT22;63092;43.582;19.528;2023-12-22T02:35:17;4.70;99.90
73360;DHT22;63092;43.582;19.528;2023-12-22T02:37:47;4.80;99.90
73360;DHT22;63092;43.582;19.528;2023-12-22T02:40:16;4.70;99.90
73360;DHT22;63092;43.582;19.528;2023-12-22T02:42:42;4.60;99.90
73360;DHT22;63092;43.582;19.528;2023-12-22T02:45:15;4.60;99.90
73360;DHT22;63092;43.582;19.528;2023-12-22T02:47:41;4.50;99.90
73360;DHT22;63092;43.582;19.528;2023-12-22T02:50:07;4.50;99.90
73360;DHT22;63092;43.582;19.528;2023-12-22T02:52:32;4.50;99.90
73360;DHT22;63092;43.582;19.528;2023-12-22T02:54:58;4.30;99.90
73360;DHT22;63092;43.582;19.528;2023-12-22T02:57:24;4.30;99.90
73360;DHT22;63092;43.582;19.528;2023-12-22T02:59:49;4.20;99.90
73360;DHT22;63092;43.582;19.528;2023-12-22T03:02:15;4.30;99.90
73360;DHT22;63092;43.582;19.528;2023-12-22T03:04:41;4.40;99.90
73360;DHT22;63092;43.582;19.528;2023-12-22T03:07:06;4.50;99.90
73360;DHT22;63092;43.582;19.528;2023-12-22T03:09:32;4.70;99.90
73360;DHT22;63092;43.582;19.528;2023-12-22T03:11:59;4.70;99.90
73360;DHT22;63092;43.582;19.528;2023-12-22T03:14:30;4.80;99.90
73360;DHT22;63092;43.582;19.528;2023-12-22T03:17:01;4.80;99.90
73360;DHT22;63092;43.582;19.528;2023-12-22T03:19:27;4.90;99.90
73360;DHT22;63092;43.582;19.528;2023-12-22T03:21:53;4.80;99.90
73360;DHT22;63092;43.582;19.528;2023-12-22T03:24:18;4.50;99.90
73360;DHT22;63092;43.582;19.528;2023-12-22T03:26:45;4.50;99.90
73360;DHT22;63092;43.582;19.528;2023-12-22T03:29:11;4.40;99.90
73360;DHT22;63092;43.582;19.528;2023-12-22T03:31:36;4.50;99.90
73360;DHT22;63092;43.582;19.528;2023-12-22T03:34:02;4.60;99.90
73360;DHT22;63092;43.582;19.528;2023-12-22T03:36:27;4.60;99.90
73360;DHT22;63092;43.582;19.528;2023-12-22T03:38:53;4.60;99.90
73360;DHT22;63092;43.582;19.528;2023-12-22T03:41:19;4.60;99.90
73360;DHT22;63092;43.582;19.528;2023-12-22T03:43:44;4.80;99.90
73360;DHT22;63092;43.582;19.528;2023-12-22T03:46:10;4.80;99.90
73360;DHT22;63092;43.582;19.528;2023-12-22T03:48:35;4.80;99.90
73360;DHT22;63092;43.582;19.528;2023-12-22T03:51:01;4.70;99.90
73360;DHT22;63092;43.582;19.528;2023-12-22T03:53:26;4.80;99.90
73360;DHT22;63092;43.582;19.528;2023-12-22T03:55:52;4.90;99.90
73360;DHT22;63092;43.582;19.528;2023-12-22T03:58:18;4.90;99.90
73360;DHT22;63092;43.582;19.528;2023-12-22T04:00:43;5.00;99.90
73360;DHT22;63092;43.582;19.528;2023-12-22T04:03:09;5.00;99.90
73360;DHT22;63092;43.582;19.528;2023-12-22T04:05:34;5.10;99.90
73360;DHT22;63092;43.582;19.528;2023-12-22T04:08:00;5.10;99.90
73360;DHT22;63092;43.582;19.528;2023-12-22T04:10:25;5.10;99.90
73360;DHT22;63092;43.582;19.528;2023-12-22T04:12:51;5.10;99.90
73360;DHT22;63092;43.582;19.528;2023-12-22T04:15:16;5.10;99.90
73360;DHT22;63092;43.582;19.528;2023-12-22T04:17:42;5.20;99.90
73360;DHT22;63092;43.582;19.528;2023-12-22T04:20:08;5.20;99.90
73360;DHT22;63092;43.582;19.528;2023-12-22T04:22:33;5.20;99.90
73360;DHT22;63092;43.582;19.528;2023-12-22T04:24:59;5.20;99.90
73360;DHT22;63092;43.582;19.528;2023-12-22T04:27:24;5.20;99.90
73360;DHT22;63092;43.582;19.528;2023-12-22T04:29:50;5.20;99.90
73360;DHT22;63092;43.582;19.528;2023-12-22T04:32:16;5.20;99.90
73360;DHT22;63092;43.582;19.528;2023-12-22T04:34:41;5.20;99.90
73360;DHT22;63092;43.582;19.528;2023-12-22T04:37:07;5.20;99.90
73360;DHT22;63092;43.582;19.528;2023-12-22T04:39:32;5.20;99.90
73360;DHT22;63092;43.582;19.528;2023-12-22T04:41:58;5.20;99.90
73360;DHT22;63092;43.582;19.528;2023-12-22T04:44:23;5.20;99.90
73360;DHT22;63092;43.582;19.528;2023-12-22T04:46:49;5.20;99.90
73360;DHT22;63092;43.582;19.528;2023-12-22T04:49:15;5.00;99.90
73360;DHT22;63092;43.582;19.528;2023-12-22T04:51:40;5.00;99.90
73360;DHT22;63092;43.582;19.528;2023-12-22T04:54:06;5.00;99.90
73360;DHT22;63092;43.582;19.528;2023-12-22T04:56:31;5.00;99.90
73360;DHT22;63092;43.582;19.528;2023-12-22T04:58:57;5.00;99.90
73360;DHT22;63092;43.582;19.528;2023-12-22T05:01:23;5.00;99.90
73360;DHT22;63092;43.582;19.528;2023-12-22T05:03:50;4.90;99.90
73360;DHT22;63092;43.582;19.528;2023-12-22T05:06:15;4.90;99.90
73360;DHT22;63092;43.582;19.528;2023-12-22T05:08:41;4.90;99.90
73360;DHT22;63092;43.582;19.528;2023-12-22T05:11:06;4.90;99.90
73360;DHT22;63092;43.582;19.528;2023-12-22T05:13:32;4.90;99.90
73360;DHT22;63092;43.582;19.528;2023-12-22T05:15:58;4.90;99.90
73360;DHT22;63092;43.582;19.528;2023-12-22T05:18:24;5.00;99.90
73360;DHT22;63092;43.582;19.528;2023-12-22T05:20:49;5.00;99.90
73360;DHT22;63092;43.582;19.528;2023-12-22T05:23:15;5.00;99.90
73360;DHT22;63092;43.582;19.528;2023-12-22T05:25:41;5.10;99.90
73360;DHT22;63092;43.582;19.528;2023-12-22T05:28:06;5.10;99.90
73360;DHT22;63092;43.582;19.528;2023-12-22T05:30:32;5.10;99.90
73360;DHT22;63092;43.582;19.528;2023-12-22T05:32:57;5.10;99.90
73360;DHT22;63092;43.582;19.528;2023-12-22T05:35:23;5.00;99.90
73360;DHT22;63092;43.582;19.528;2023-12-22T05:37:48;5.10;99.90
73360;DHT22;63092;43.582;19.528;2023-12-22T05:40:14;5.10;99.90
73360;DHT22;63092;43.582;19.528;2023-12-22T05:42:40;5.10;99.90
73360;DHT22;63092;43.582;19.528;2023-12-22T05:45:05;5.10;99.90
73360;DHT22;63092;43.582;19.528;2023-12-22T05:47:32;5.00;99.90
73360;DHT22;63092;43.582;19.528;2023-12-22T05:49:58;4.90;99.90
73360;DHT22;63092;43.582;19.528;2023-12-22T05:52:23;5.00;99.90
73360;DHT22;63092;43.582;19.528;2023-12-22T05:54:49;5.00;99.90
73360;DHT22;63092;43.582;19.528;2023-12-22T05:57:14;5.00;99.90
73360;DHT22;63092;43.582;19.528;2023-12-22T05:59:40;5.00;99.90
73360;DHT22;63092;43.582;19.528;2023-12-22T06:02:06;5.00;99.90
73360;DHT22;63092;43.582;19.528;2023-12-22T06:04:31;5.00;99.90
73360;DHT22;63092;43.582;19.528;2023-12-22T06:06:57;5.10;99.90
73360;DHT22;63092;43.582;19.528;2023-12-22T06:09:22;5.10;99.90
73360;DHT22;63092;43.582;19.528;2023-12-22T06:11:48;5.10;99.90
73360;DHT22;63092;43.582;19.528;2023-12-22T06:14:13;5.10;99.90
73360;DHT22;63092;43.582;19.528;2023-12-22T06:16:40;5.00;99.90
73360;DHT22;63092;43.582;19.528;2023-12-22T06:19:05;5.00;99.90
73360;DHT22;63092;43.582;19.528;2023-12-22T06:21:31;5.10;99.90
73360;DHT22;63092;43.582;19.528;2023-12-22T06:23:56;5.10;99.90
73360;DHT22;63092;43.582;19.528;2023-12-22T06:26:22;5.10;99.90
73360;DHT22;63092;43.582;19.528;2023-12-22T06:28:49;5.10;99.90
73360;DHT22;63092;43.582;19.528;2023-12-22T06:31:18;5.10;99.90
73360;DHT22;63092;43.582;19.528;2023-12-22T06:33:44;5.10;99.90
73360;DHT22;63092;43.582;19.528;2023-12-22T06:38:44;5.10;99.90
73360;DHT22;63092;43.582;19.528;2023-12-22T06:41:23;5.10;99.90
73360;DHT22;63092;43.582;19.528;2023-12-22T06:43:49;5.20;99.90
73360;DHT22;63092;43.582;19.528;2023-12-22T06:46:16;5.20;99.90
73360;DHT22;63092;43.582;19.528;2023-12-22T06:48:42;5.20;99.90
73360;DHT22;63092;43.582;19.528;2023-12-22T06:51:16;5.20;99.90
73360;DHT22;63092;43.582;19.528;2023-12-22T06:53:41;5.20;99.90
73360;DHT22;63092;43.582;19.528;2023-12-22T06:56:14;5.30;99.90
73360;DHT22;63092;43.582;19.528;2023-12-22T06:58:39;5.20;99.90
73360;DHT22;63092;43.582;19.528;2023-12-22T07:01:05;5.30;99.90
73360;DHT22;63092;43.582;19.528;2023-12-22T07:03:30;5.20;99.90
73360;DHT22;63092;43.582;19.528;2023-12-22T07:05:56;5.20;99.90
73360;DHT22;63092;43.582;19.528;2023-12-22T07:08:22;5.30;99.90
73360;DHT22;63092;43.582;19.528;2023-12-22T07:10:47;5.40;99.90
73360;DHT22;63092;43.582;19.528;2023-12-22T07:13:13;5.40;99.90
73360;DHT22;63092;43.582;19.528;2023-12-22T07:15:38;5.40;99.90
73360;DHT22;63092;43.582;19.528;2023-12-22T07:18:04;5.40;99.90
73360;DHT22;63092;43.582;19.528;2023-12-22T07:20:30;5.40;99.90
73360;DHT22;63092;43.582;19.528;2023-12-22T07:22:55;5.20;99.90
73360;DHT22;63092;43.582;19.528;2023-12-22T07:25:21;5.20;99.90
73360;DHT22;63092;43.582;19.528;2023-12-22T07:27:47;5.20;99.90
73360;DHT22;63092;43.582;19.528;2023-12-22T07:30:13;5.30;99.90
73360;DHT22;63092;43.582;19.528;2023-12-22T07:32:42;5.30;99.90
73360;DHT22;63092;43.582;19.528;2023-12-22T07:35:09;5.40;99.90
73360;DHT22;63092;43.582;19.528;2023-12-22T07:37:37;5.50;99.90
73360;DHT22;63092;43.582;19.528;2023-12-22T07:40:03;5.50;99.90
73360;DHT22;63092;43.582;19.528;2023-12-22T07:42:29;5.60;99.90
73360;DHT22;63092;43.582;19.528;2023-12-22T07:44:54;5.50;99.90
73360;DHT22;63092;43.582;19.528;2023-12-22T07:47:20;5.40;99.90
73360;DHT22;63092;43.582;19.528;2023-12-22T07:49:46;5.50;99.90
73360;DHT22;63092;43.582;19.528;2023-12-22T07:52:11;5.50;99.90
73360;DHT22;63092;43.582;19.528;2023-12-22T07:54:37;5.50;99.90
73360;DHT22;63092;43.582;19.528;2023-12-22T07:57:02;5.60;99.90
73360;DHT22;63092;43.582;19.528;2023-12-22T07:59:28;5.70;99.90
73360;DHT22;63092;43.582;19.528;2023-12-22T08:01:54;5.70;99.90
73360;DHT22;63092;43.582;19.528;2023-12-22T08:04:19;5.80;99.90
73360;DHT22;63092;43.582;19.528;2023-12-22T08:06:45;5.80;99.90
73360;DHT22;63092;43.582;19.528;2023-12-22T08:09:11;5.80;99.90
73360;DHT22;63092;43.582;19.528;2023-12-22T08:11:37;5.70;99.90
73360;DHT22;63092;43.582;19.528;2023-12-22T08:14:03;5.60;99.90
73360;DHT22;63092;43.582;19.528;2023-12-22T08:16:29;5.60;99.90
73360;DHT22;63092;43.582;19.528;2023-12-22T08:18:54;5.40;99.90
73360;DHT22;63092;43.582;19.528;2023-12-22T08:21:20;5.30;99.90
73360;DHT22;63092;43.582;19.528;2023-12-22T08:23:46;5.30;99.90
73360;DHT22;63092;43.582;19.528;2023-12-22T08:26:13;5.30;99.90
73360;DHT22;63092;43.582;19.528;2023-12-22T08:28:42;5.30;99.90
73360;DHT22;63092;43.582;19.528;2023-12-22T08:31:08;5.30;99.90
73360;DHT22;63092;43.582;19.528;2023-12-22T08:33:33;5.40;99.90
73360;DHT22;63092;43.582;19.528;2023-12-22T08:35:59;5.40;99.90
73360;DHT22;63092;43.582;19.528;2023-12-22T08:38:24;5.30;99.90
73360;DHT22;63092;43.582;19.528;2023-12-22T08:40:51;5.20;99.90
73360;DHT22;63092;43.582;19.528;2023-12-22T08:43:17;5.20;99.90
73360;DHT22;63092;43.582;19.528;2023-12-22T08:45:43;5.10;99.90
73360;DHT22;63092;43.582;19.528;2023-12-22T08:48:08;5.20;99.90
73360;DHT22;63092;43.582;19.528;2023-12-22T08:50:34;5.20;99.90
73360;DHT22;63092;43.582;19.528;2023-12-22T08:53:00;5.30;99.90
73360;DHT22;63092;43.582;19.528;2023-12-22T08:55:25;5.40;99.90
73360;DHT22;63092;43.582;19.528;2023-12-22T08:57:51;5.50;99.90
73360;DHT22;63092;43.582;19.528;2023-12-22T09:00:17;5.60;99.90
73360;DHT22;63092;43.582;19.528;2023-12-22T09:02:42;5.70;99.90
73360;DHT22;63092;43.582;19.528;2023-12-22T09:05:08;5.80;99.90
73360;DHT22;63092;43.582;19.528;2023-12-22T09:07:33;5.80;99.90
73360;DHT22;63092;43.582;19.528;2023-12-22T09:09:59;5.90;99.90
73360;DHT22;63092;43.582;19.528;2023-12-22T09:12:24;5.90;99.90
73360;DHT22;63092;43.582;19.528;2023-12-22T09:14:50;5.90;99.90
73360;DHT22;63092;43.582;19.528;2023-12-22T09:17:16;5.90;99.90
73360;DHT22;63092;43.582;19.528;2023-12-22T09:19:41;5.90;99.90
73360;DHT22;63092;43.582;19.528;2023-12-22T09:22:08;6.00;99.90
73360;DHT22;63092;43.582;19.528;2023-12-22T09:24:34;6.00;99.90
73360;DHT22;63092;43.582;19.528;2023-12-22T09:26:59;6.00;99.90
73360;DHT22;63092;43.582;19.528;2023-12-22T09:29:31;5.90;99.90
73360;DHT22;63092;43.582;19.528;2023-12-22T09:32:01;6.00;99.90
73360;DHT22;63092;43.582;19.528;2023-12-22T09:34:26;5.90;99.90
73360;DHT22;63092;43.582;19.528;2023-12-22T09:36:55;5.70;99.90
73360;DHT22;63092;43.582;19.528;2023-12-22T09:39:20;5.70;99.90
73360;DHT22;63092;43.582;19.528;2023-12-22T09:41:47;5.70;99.90
73360;DHT22;63092;43.582;19.528;2023-12-22T09:44:14;5.80;99.90
73360;DHT22;63092;43.582;19.528;2023-12-22T09:46:41;5.80;99.90
73360;DHT22;63092;43.582;19.528;2023-12-22T09:49:08;5.80;99.90
73360;DHT22;63092;43.582;19.528;2023-12-22T09:51:34;5.90;99.90
73360;DHT22;63092;43.582;19.528;2023-12-22T09:54:00;6.00;99.90
73360;DHT22;63092;43.582;19.528;2023-12-22T09:56:28;6.10;99.90
73360;DHT22;63092;43.582;19.528;2023-12-22T09:58:54;6.10;99.90
73360;DHT22;63092;43.582;19.528;2023-12-22T10:01:21;6.20;99.90
73360;DHT22;63092;43.582;19.528;2023-12-22T10:03:48;6.20;99.90
73360;DHT22;63092;43.582;19.528;2023-12-22T10:06:14;6.30;99.90
73360;DHT22;63092;43.582;19.528;2023-12-22T10:08:43;6.30;99.90
73360;DHT22;63092;43.582;19.528;2023-12-22T10:11:08;6.30;99.90
73360;DHT22;63092;43.582;19.528;2023-12-22T10:13:36;6.40;99.90
73360;DHT22;63092;43.582;19.528;2023-12-22T10:16:02;6.50;99.90
73360;DHT22;63092;43.582;19.528;2023-12-22T10:18:28;6.60;99.90
73360;DHT22;63092;43.582;19.528;2023-12-22T10:20:54;6.70;99.90
73360;DHT22;63092;43.582;19.528;2023-12-22T10:23:20;6.70;99.90
73360;DHT22;63092;43.582;19.528;2023-12-22T10:25:45;6.70;99.90
73360;DHT22;63092;43.582;19.528;2023-12-22T10:28:11;6.70;99.90
73360;DHT22;63092;43.582;19.528;2023-12-22T10:30:38;6.90;99.90
73360;DHT22;63092;43.582;19.528;2023-12-22T10:33:05;6.70;99.90
73360;DHT22;63092;43.582;19.528;2023-12-22T10:35:36;6.70;99.90
73360;DHT22;63092;43.582;19.528;2023-12-22T10:38:02;6.70;99.90
73360;DHT22;63092;43.582;19.528;2023-12-22T10:40:29;6.90;99.90
73360;DHT22;63092;43.582;19.528;2023-12-22T10:42:58;6.80;99.90
73360;DHT22;63092;43.582;19.528;2023-12-22T10:45:24;6.80;99.90
73360;DHT22;63092;43.582;19.528;2023-12-22T10:47:50;6.80;99.90
73360;DHT22;63092;43.582;19.528;2023-12-22T10:50:16;6.90;99.90
73360;DHT22;63092;43.582;19.528;2023-12-22T10:52:48;7.00;99.90
73360;DHT22;63092;43.582;19.528;2023-12-22T10:55:15;7.00;99.90
73360;DHT22;63092;43.582;19.528;2023-12-22T10:57:40;7.00;99.90
73360;DHT22;63092;43.582;19.528;2023-12-22T11:00:06;7.10;99.90
73360;DHT22;63092;43.582;19.528;2023-12-22T11:02:35;7.00;99.90
73360;DHT22;63092;43.582;19.528;2023-12-22T11:05:02;7.00;99.90
73360;DHT22;63092;43.582;19.528;2023-12-22T11:07:32;7.00;99.90
73360;DHT22;63092;43.582;19.528;2023-12-22T11:10:00;7.10;99.90
73360;DHT22;63092;43.582;19.528;2023-12-22T11:12:27;7.20;99.90
73360;DHT22;63092;43.582;19.528;2023-12-22T11:14:53;7.30;99.90
73360;DHT22;63092;43.582;19.528;2023-12-22T11:17:21;7.30;99.90
73360;DHT22;63092;43.582;19.528;2023-12-22T11:19:50;7.30;99.90
73360;DHT22;63092;43.582;19.528;2023-12-22T11:22:18;7.30;99.90
73360;DHT22;63092;43.582;19.528;2023-12-22T11:24:47;7.30;99.90
73360;DHT22;63092;43.582;19.528;2023-12-22T11:27:16;7.30;99.90
73360;DHT22;63092;43.582;19.528;2023-12-22T11:29:43;7.40;99.90
73360;DHT22;63092;43.582;19.528;2023-12-22T11:32:10;7.40;99.90
73360;DHT22;63092;43.582;19.528;2023-12-22T11:34:36;7.50;99.90
73360;DHT22;63092;43.582;19.528;2023-12-22T11:37:03;7.50;99.90
73360;DHT22;63092;43.582;19.528;2023-12-22T11:39:29;7.40;99.90
73360;DHT22;63092;43.582;19.528;2023-12-22T11:41:55;7.50;99.90
73360;DHT22;63092;43.582;19.528;2023-12-22T11:44:22;7.60;99.90
73360;DHT22;63092;43.582;19.528;2023-12-22T11:46:48;7.60;99.90
73360;DHT22;63092;43.582;19.528;2023-12-22T11:49:13;7.60;99.90
73360;DHT22;63092;43.582;19.528;2023-12-22T11:51:39;7.60;99.90
73360;DHT22;63092;43.582;19.528;2023-12-22T11:54:42;7.60;99.90
73360;DHT22;63092;43.582;19.528;2023-12-22T11:56:50;7.60;99.90
73360;DHT22;63092;43.582;19.528;2023-12-22T11:59:16;7.60;99.90
73360;DHT22;63092;43.582;19.528;2023-12-22T12:01:42;7.60;99.90
73360;DHT22;63092;43.582;19.528;2023-12-22T12:04:07;7.60;99.90
73360;DHT22;63092;43.582;19.528;2023-12-22T12:06:33;7.50;99.90
73360;DHT22;63092;43.582;19.528;2023-12-22T12:09:00;7.60;99.90
73360;DHT22;63092;43.582;19.528;2023-12-22T12:14:13;7.50;99.90
73360;DHT22;63092;43.582;19.528;2023-12-22T12:16:40;7.60;99.90
73360;DHT22;63092;43.582;19.528;2023-12-22T12:19:08;7.60;99.90
73360;DHT22;63092;43.582;19.528;2023-12-22T12:21:34;7.60;99.90
73360;DHT22;63092;43.582;19.528;2023-12-22T12:24:00;7.60;99.90
73360;DHT22;63092;43.582;19.528;2023-12-22T12:26:26;7.70;99.90
73360;DHT22;63092;43.582;19.528;2023-12-22T12:28:52;7.70;99.90
73360;DHT22;63092;43.582;19.528;2023-12-22T12:31:17;7.70;99.90
73360;DHT22;63092;43.582;19.528;2023-12-22T12:33:43;7.70;99.90
73360;DHT22;63092;43.582;19.528;2023-12-22T12:36:09;7.70;99.90
73360;DHT22;63092;43.582;19.528;2023-12-22T12:41:01;7.80;99.90
73360;DHT22;63092;43.582;19.528;2023-12-22T12:43:29;7.80;99.90
73360;DHT22;63092;43.582;19.528;2023-12-22T12:45:54;7.90;99.90
73360;DHT22;63092;43.582;19.528;2023-12-22T12:48:20;7.70;99.90
73360;DHT22;63092;43.582;19.528;2023-12-22T12:50:46;7.60;99.90
73360;DHT22;63092;43.582;19.528;2023-12-22T12:53:12;7.60;99.90
73360;DHT22;63092;43.582;19.528;2023-12-22T12:55:37;7.60;99.90
73360;DHT22;63092;43.582;19.528;2023-12-22T12:58:03;7.60;99.90
73360;DHT22;63092;43.582;19.528;2023-12-22T13:00:32;7.50;99.90
73360;DHT22;63092;43.582;19.528;2023-12-22T13:03:01;7.50;99.90
73360;DHT22;63092;43.582;19.528;2023-12-22T13:05:30;7.70;99.90
73360;DHT22;63092;43.582;19.528;2023-12-22T13:08:11;7.70;99.90
73360;DHT22;63092;43.582;19.528;2023-12-22T13:10:37;7.80;99.90
73360;DHT22;63092;43.582;19.528;2023-12-22T13:13:03;7.90;99.90
73360;DHT22;63092;43.582;19.528;2023-12-22T13:15:29;7.90;99.90
73360;DHT22;63092;43.582;19.528;2023-12-22T13:17:55;8.00;99.90
73360;DHT22;63092;43.582;19.528;2023-12-22T13:20:21;8.00;99.90
73360;DHT22;63092;43.582;19.528;2023-12-22T13:22:47;8.10;99.90
73360;DHT22;63092;43.582;19.528;2023-12-22T13:25:13;8.10;99.90
73360;DHT22;63092;43.582;19.528;2023-12-22T13:27:48;8.10;99.90
73360;DHT22;63092;43.582;19.528;2023-12-22T13:32:58;8.20;99.90
73360;DHT22;63092;43.582;19.528;2023-12-22T13:35:24;8.20;99.90
73360;DHT22;63092;43.582;19.528;2023-12-22T13:37:51;8.10;99.90
73360;DHT22;63092;43.582;19.528;2023-12-22T13:40:16;8.00;99.90
73360;DHT22;63092;43.582;19.528;2023-12-22T13:42:42;8.00;99.90
73360;DHT22;63092;43.582;19.528;2023-12-22T13:45:11;8.00;99.90
73360;DHT22;63092;43.582;19.528;2023-12-22T13:47:43;7.90;99.90
73360;DHT22;63092;43.582;19.528;2023-12-22T13:50:15;7.80;99.90
73360;DHT22;63092;43.582;19.528;2023-12-22T13:52:41;7.70;99.90
73360;DHT22;63092;43.582;19.528;2023-12-22T13:55:12;7.80;99.90
73360;DHT22;63092;43.582;19.528;2023-12-22T13:57:38;7.90;99.90
73360;DHT22;63092;43.582;19.528;2023-12-22T14:00:25;8.00;99.90
73360;DHT22;63092;43.582;19.528;2023-12-22T14:02:51;8.10;99.90
73360;DHT22;63092;43.582;19.528;2023-12-22T14:05:20;8.10;99.90
73360;DHT22;63092;43.582;19.528;2023-12-22T14:07:45;8.10;99.90
73360;DHT22;63092;43.582;19.528;2023-12-22T14:10:11;8.40;99.90
73360;DHT22;63092;43.582;19.528;2023-12-22T14:12:37;8.30;99.90
73360;DHT22;63092;43.582;19.528;2023-12-22T14:15:06;8.20;99.90
73360;DHT22;63092;43.582;19.528;2023-12-22T14:17:32;8.30;99.90
73360;DHT22;63092;43.582;19.528;2023-12-22T14:19:57;8.30;99.90
73360;DHT22;63092;43.582;19.528;2023-12-22T14:22:23;8.30;99.90
73360;DHT22;63092;43.582;19.528;2023-12-22T14:24:49;8.40;99.90
73360;DHT22;63092;43.582;19.528;2023-12-22T14:27:14;8.40;99.90
73360;DHT22;63092;43.582;19.528;2023-12-22T14:29:43;8.40;99.90
73360;DHT22;63092;43.582;19.528;2023-12-22T14:32:08;8.40;99.90
73360;DHT22;63092;43.582;19.528;2023-12-22T14:34:36;8.40;99.90
73360;DHT22;63092;43.582;19.528;2023-12-22T14:37:02;8.30;99.90
73360;DHT22;63092;43.582;19.528;2023-12-22T14:39:27;8.10;99.90
73360;DHT22;63092;43.582;19.528;2023-12-22T14:41:53;8.00;99.90
73360;DHT22;63092;43.582;19.528;2023-12-22T14:44:19;8.00;99.90
73360;DHT22;63092;43.582;19.528;2023-12-22T14:46:44;8.20;99.90
73360;DHT22;63092;43.582;19.528;2023-12-22T14:49:11;8.20;99.90
73360;DHT22;63092;43.582;19.528;2023-12-22T14:51:37;8.10;99.90
73360;DHT22;63092;43.582;19.528;2023-12-22T14:54:06;8.00;99.90
73360;DHT22;63092;43.582;19.528;2023-12-22T14:56:32;8.00;99.90
73360;DHT22;63092;43.582;19.528;2023-12-22T14:58:57;8.00;99.90
73360;DHT22;63092;43.582;19.528;2023-12-22T15:01:23;8.00;99.90
73360;DHT22;63092;43.582;19.528;2023-12-22T15:03:49;7.90;99.90
73360;DHT22;63092;43.582;19.528;2023-12-22T15:06:15;7.90;99.90
73360;DHT22;63092;43.582;19.528;2023-12-22T15:08:41;7.90;99.90
73360;DHT22;63092;43.582;19.528;2023-12-22T15:11:07;7.90;99.90
73360;DHT22;63092;43.582;19.528;2023-12-22T15:13:34;7.90;99.90
73360;DHT22;63092;43.582;19.528;2023-12-22T15:16:06;7.80;99.90
73360;DHT22;63092;43.582;19.528;2023-12-22T15:18:34;7.80;99.90
73360;DHT22;63092;43.582;19.528;2023-12-22T15:21:00;7.80;99.90
73360;DHT22;63092;43.582;19.528;2023-12-22T15:23:26;7.80;99.90
73360;DHT22;63092;43.582;19.528;2023-12-22T15:25:52;7.70;99.90
73360;DHT22;63092;43.582;19.528;2023-12-22T15:28:17;7.60;99.90
73360;DHT22;63092;43.582;19.528;2023-12-22T15:30:43;7.60;99.90
73360;DHT22;63092;43.582;19.528;2023-12-22T15:33:08;7.40;99.90
73360;DHT22;63092;43.582;19.528;2023-12-22T15:35:34;7.30;99.90
73360;DHT22;63092;43.582;19.528;2023-12-22T15:38:00;7.20;99.90